createdAt,value
2024-02-26T00:00:10.030Z,99999.78
2024-02-26T00:02:39.231Z,99998.06
2024-02-26T00:05:08.345Z,99995.50
2024-02-26T00:07:36.519Z,100003.25
2024-02-26T00:10:04.936Z,99993.78
2024-02-26T00:12:32.908Z,99997.19
2024-02-26T00:15:00.549Z,99996.34
2024-02-26T00:17:28.088Z,99996.34
2024-02-26T00:19:55.686Z,99995.50
2024-02-26T00:22:24.142Z,99999.81
2024-02-26T00:24:51.701Z,100002.44
2024-02-26T00:27:19.292Z,100004.97
2024-02-26T00:29:46.891Z,100005.84
2024-02-26T00:32:14.435Z,100011.00
2024-02-26T00:34:42.031Z,100007.56
2024-02-26T00:37:09.626Z,100009.25
2024-02-26T00:39:37.133Z,100004.97
2024-02-26T00:42:05.102Z,100016.16
2024-02-26T00:44:33.025Z,100013.59
2024-02-26T00:47:00.589Z,100016.19
2024-02-26T00:49:28.144Z,100020.50
2024-02-26T00:51:55.660Z,100010.16
2024-02-26T00:54:23.210Z,100007.59
2024-02-26T00:56:50.817Z,100013.59
2024-02-26T00:59:18.357Z,100016.19
2024-02-26T01:01:45.946Z,100022.19
2024-02-26T01:04:14.045Z,100014.44
2024-02-26T01:06:41.786Z,100017.91
2024-02-26T01:09:10.402Z,100016.19
2024-02-26T01:11:38.352Z,100008.44
2024-02-26T01:14:05.989Z,100011.03
2024-02-26T01:16:34.475Z,100014.47
2024-02-26T01:19:02.235Z,100011.03
2024-02-26T01:21:31.153Z,100005.00
2024-02-26T01:23:58.684Z,100006.72
2024-02-26T01:26:26.229Z,100005.88
2024-02-26T01:28:54.160Z,99998.13
2024-02-26T01:31:21.779Z,99999.81
2024-02-26T01:33:49.486Z,99997.25
2024-02-26T01:36:17.308Z,99995.53
2024-02-26T01:38:44.980Z,100006.72
2024-02-26T01:41:12.635Z,99998.97
2024-02-26T01:43:40.189Z,100008.44
2024-02-26T01:46:09.804Z,99999.00
2024-02-26T01:48:37.556Z,99998.97
2024-02-26T01:51:05.560Z,100001.53
2024-02-26T01:53:33.491Z,99997.25
2024-02-26T01:56:01.144Z,99997.25
2024-02-26T01:58:29.013Z,100005.88
2024-02-26T02:00:56.715Z,100007.56
2024-02-26T02:03:25.572Z,100005.00
2024-02-26T02:05:53.306Z,100007.59
2024-02-26T02:08:21.004Z,100018.75
2024-02-26T02:10:50.219Z,100020.50
2024-02-26T02:13:18.216Z,100017.91
2024-02-26T02:15:45.816Z,100019.63
2024-02-26T02:18:13.556Z,100023.06
2024-02-26T02:20:41.204Z,100024.81
2024-02-26T02:23:08.776Z,100031.69
2024-02-26T02:25:36.315Z,100031.66
2024-02-26T02:28:04.100Z,100028.22
2024-02-26T02:30:34.396Z,100043.72
2024-02-26T02:33:02.340Z,100041.13
2024-02-26T02:35:30.088Z,100041.16
2024-02-26T02:37:59.165Z,100041.13
2024-02-26T02:40:26.771Z,100044.59
2024-02-26T02:42:54.312Z,100047.16
2024-02-26T02:45:21.979Z,100041.13
2024-02-26T02:47:49.579Z,100048.03
2024-02-26T02:50:17.368Z,100063.50
2024-02-26T02:52:44.956Z,100055.78
2024-02-26T02:55:12.944Z,100061.81
2024-02-26T02:57:42.353Z,100067.81
2024-02-26T03:00:11.838Z,100066.94
2024-02-26T03:02:39.544Z,100068.66
2024-02-26T03:05:07.622Z,100071.25
2024-02-26T03:07:35.194Z,100078.16
2024-02-26T03:10:02.848Z,100091.91
2024-02-26T03:12:30.841Z,100090.16
2024-02-26T03:14:58.597Z,100092.75
2024-02-26T03:17:26.441Z,100103.94
2024-02-26T03:19:55.331Z,100111.69
2024-02-26T03:22:23.136Z,100109.16
2024-02-26T03:24:50.712Z,100100.50
2024-02-26T03:27:18.372Z,100098.81
2024-02-26T03:29:46.070Z,100110.84
2024-02-26T03:32:13.708Z,100110.84
2024-02-26T03:34:41.593Z,100115.97
2024-02-26T03:37:11.791Z,100125.44
2024-02-26T03:39:40.030Z,100118.56
2024-02-26T03:42:07.880Z,100119.41
2024-02-26T03:44:35.478Z,100117.66
2024-02-26T03:47:02.985Z,100120.28
2024-02-26T03:49:30.598Z,100117.69
2024-02-26T03:51:58.303Z,100118.56
2024-02-26T03:54:25.972Z,100122.84
2024-02-26T03:56:53.593Z,100125.41
2024-02-26T03:59:23.068Z,100122.81
2024-02-26T04:01:50.609Z,100131.47
2024-02-26T04:04:18.232Z,100124.56
2024-02-26T04:06:49.281Z,100129.66
2024-02-26T04:09:17.054Z,100115.97
2024-02-26T04:11:45.410Z,100137.44
2024-02-26T04:14:13.726Z,100128.00
2024-02-26T04:16:41.394Z,100130.59
2024-02-26T04:19:09.091Z,100143.47
2024-02-26T04:21:37.241Z,100138.34
2024-02-26T04:24:05.056Z,100146.06
2024-02-26T04:26:32.904Z,100146.06
2024-02-26T04:29:00.433Z,100144.38
2024-02-26T04:31:28.600Z,100140.03
2024-02-26T04:33:56.403Z,100142.59
2024-02-26T04:36:24.468Z,100141.75
2024-02-26T04:38:52.147Z,100134.81
2024-02-26T04:41:19.698Z,100149.44
2024-02-26T04:43:47.223Z,100146.91
2024-02-26T04:46:14.743Z,100150.31
2024-02-26T04:48:43.255Z,100148.56
2024-02-26T04:51:11.062Z,100157.09
2024-02-26T04:53:38.651Z,100154.53
2024-02-26T04:56:06.667Z,100149.44
2024-02-26T04:58:34.226Z,100155.47
2024-02-26T05:01:01.918Z,100157.16
2024-02-26T05:03:29.624Z,100161.47
2024-02-26T05:05:59.254Z,100162.38
2024-02-26T05:08:26.919Z,100168.38
2024-02-26T05:10:54.533Z,100170.06
2024-02-26T05:13:22.084Z,100170.94
2024-02-26T05:15:50.836Z,100176.13
2024-02-26T05:18:18.476Z,100177.88
2024-02-26T05:20:46.109Z,100176.13
2024-02-26T05:23:13.734Z,100182.22
2024-02-26T05:25:42.406Z,100183.00
2024-02-26T05:28:10.511Z,100196.75
2024-02-26T05:30:41.033Z,100177.75
2024-02-26T05:33:08.731Z,100190.69
2024-02-26T05:35:36.285Z,100198.38
2024-02-26T05:38:03.922Z,100192.44
2024-02-26T05:40:32.118Z,100195.03
2024-02-26T05:42:59.718Z,100199.25
2024-02-26T05:45:27.306Z,100196.69
2024-02-26T05:47:55.007Z,100196.69
2024-02-26T05:50:22.662Z,100213.03
2024-02-26T05:52:50.252Z,100204.44
2024-02-26T05:55:17.940Z,100210.50
2024-02-26T05:57:45.524Z,100207.88
2024-02-26T06:00:15.554Z,100213.88
2024-02-26T06:02:43.606Z,100228.50
2024-02-26T06:05:11.341Z,100229.38
2024-02-26T06:07:38.822Z,100226.84
2024-02-26T06:10:07.684Z,100224.25
2024-02-26T06:12:37.962Z,100215.69
2024-02-26T06:15:05.963Z,100225.94
2024-02-26T06:17:33.680Z,100241.41
2024-02-26T06:20:01.929Z,100243.09
2024-02-26T06:22:29.832Z,100248.28
2024-02-26T06:24:57.391Z,100237.91
2024-02-26T06:27:25.583Z,100248.31
2024-02-26T06:29:54.998Z,100246.63
2024-02-26T06:32:25.437Z,100248.34
2024-02-26T06:34:53.156Z,100255.19
2024-02-26T06:37:20.920Z,100253.41
2024-02-26T06:39:48.702Z,100276.59
2024-02-26T06:42:16.314Z,100262.94
2024-02-26T06:44:43.935Z,100264.63
2024-02-26T06:47:12.750Z,100273.97
2024-02-26T06:49:40.587Z,100285.25
2024-02-26T06:52:08.467Z,100286.06
2024-02-26T06:54:35.976Z,100282.59
2024-02-26T06:57:04.297Z,100296.41
2024-02-26T06:59:31.926Z,100293.78
2024-02-26T07:01:59.529Z,100297.28
2024-02-26T07:04:27.207Z,100294.75
2024-02-26T07:06:54.799Z,100295.69
2024-02-26T07:09:22.610Z,100299.09
2024-02-26T07:11:50.263Z,100304.16
2024-02-26T07:14:17.870Z,100314.47
2024-02-26T07:16:45.508Z,100317.00
2024-02-26T07:19:13.781Z,100317.91
2024-02-26T07:21:41.895Z,100318.81
2024-02-26T07:24:09.658Z,100322.25
2024-02-26T07:26:37.333Z,100322.25
2024-02-26T07:29:05.328Z,100329.09
2024-02-26T07:31:32.941Z,100323.88
2024-02-26T07:34:00.870Z,100325.69
2024-02-26T07:36:28.661Z,100329.09
2024-02-26T07:38:56.291Z,100333.53
2024-02-26T07:41:23.893Z,100335.28
2024-02-26T07:43:51.445Z,100342.19
2024-02-26T07:46:19.233Z,100350.69
2024-02-26T07:48:47.181Z,100348.06
2024-02-26T07:51:15.972Z,100343.81
2024-02-26T07:53:43.586Z,100350.66
2024-02-26T07:56:11.683Z,100351.50
2024-02-26T07:58:39.234Z,100367.81
2024-02-26T08:01:06.836Z,100370.44
2024-02-26T08:03:34.463Z,100373.13
2024-02-26T08:06:02.197Z,100372.13
2024-02-26T08:08:29.808Z,100377.19
2024-02-26T08:10:57.424Z,100385.00
2024-02-26T08:13:25.169Z,100386.06
2024-02-26T08:15:52.773Z,100392.78
2024-02-26T08:18:21.318Z,100413.41
2024-02-26T08:20:50.114Z,100401.44
2024-02-26T08:23:18.108Z,100383.28
2024-02-26T08:25:45.757Z,100404.78
2024-02-26T08:28:14.419Z,100403.09
2024-02-26T08:30:42.014Z,100411.69
2024-02-26T08:33:10.106Z,100417.66
2024-02-26T08:35:38.389Z,100422.03
2024-02-26T08:38:06.152Z,100410.97
2024-02-26T08:40:33.729Z,100415.09
2024-02-26T08:43:01.260Z,100418.50
2024-02-26T08:45:31.325Z,100423.84
2024-02-26T08:47:59.742Z,100422.94
2024-02-26T08:50:27.473Z,100425.59
2024-02-26T08:52:55.104Z,100437.44
2024-02-26T08:55:22.678Z,100441.91
2024-02-26T08:57:50.353Z,100439.22
2024-02-26T09:00:18.865Z,100445.19
2024-02-26T09:02:46.571Z,100450.47
2024-02-26T09:05:14.253Z,100449.66
2024-02-26T09:07:41.985Z,100450.56
2024-02-26T09:10:11.598Z,100452.28
2024-02-26T09:12:40.819Z,100459.84
2024-02-26T09:15:09.358Z,100462.53
2024-02-26T09:17:37.484Z,100466.84
2024-02-26T09:20:06.950Z,100468.69
2024-02-26T09:22:36.121Z,100466.97
2024-02-26T09:25:04.690Z,100475.53
2024-02-26T09:27:32.748Z,100484.13
2024-02-26T09:30:00.704Z,100485.66
2024-02-26T09:32:28.911Z,100480.50
2024-02-26T09:34:56.563Z,100487.44
2024-02-26T09:37:24.142Z,100489.13
2024-02-26T09:39:51.844Z,100488.19
2024-02-26T09:42:22.249Z,100490.03
2024-02-26T09:44:56.524Z,100507.13
2024-02-26T09:47:25.917Z,100496.13
2024-02-26T09:49:55.475Z,100509.81
2024-02-26T09:52:23.828Z,100518.41
2024-02-26T09:54:51.572Z,100506.34
2024-02-26T09:57:19.328Z,100511.44
2024-02-26T09:59:51.066Z,100509.81
2024-02-26T10:02:21.798Z,100519.88
2024-02-26T10:04:52.572Z,100531.88
2024-02-26T10:07:20.800Z,100535.66
2024-02-26T10:09:48.647Z,100533.78
2024-02-26T10:12:18.601Z,100543.28
2024-02-26T10:14:46.412Z,100538.03
2024-02-26T10:17:14.177Z,100555.13
2024-02-26T10:19:41.973Z,100550.94
2024-02-26T10:22:09.720Z,100557.84
2024-02-26T10:24:37.322Z,100557.91
2024-02-26T10:27:05.231Z,100561.25
2024-02-26T10:29:33.470Z,100570.09
2024-02-26T10:32:01.179Z,100573.53
2024-02-26T10:34:30.413Z,100567.59
2024-02-26T10:36:58.179Z,100567.47
2024-02-26T10:39:25.803Z,100582.00
2024-02-26T10:41:54.567Z,100573.53
2024-02-26T10:44:22.153Z,100583.03
2024-02-26T10:46:51.180Z,100588.06
2024-02-26T10:49:21.554Z,100597.78
2024-02-26T10:51:58.846Z,100592.44
2024-02-26T10:54:29.860Z,100607.91
2024-02-26T10:57:02.245Z,100617.34
2024-02-26T10:59:30.102Z,100613.94
2024-02-26T11:01:58.582Z,100614.97
2024-02-26T11:04:28.918Z,100618.28
2024-02-26T11:07:06.063Z,100630.56
2024-02-26T11:09:35.021Z,100630.56
2024-02-26T11:12:05.955Z,100636.41
2024-02-26T11:14:33.778Z,100636.53
2024-02-26T11:17:02.431Z,100635.72
2024-02-26T11:19:33.979Z,100641.06
2024-02-26T11:22:12.352Z,100653.81
2024-02-26T11:24:46.796Z,100647.88
2024-02-26T11:27:14.811Z,100654.63
2024-02-26T11:29:46.783Z,100646.88
2024-02-26T11:32:15.420Z,100646.09
2024-02-26T11:34:45.087Z,100646.91
2024-02-26T11:37:14.323Z,100662.31
2024-02-26T11:39:46.902Z,100659.78
2024-02-26T11:42:18.220Z,100655.59
2024-02-26T11:44:46.126Z,100647.97
2024-02-26T11:47:24.521Z,100661.59
2024-02-26T11:49:52.344Z,100662.56
2024-02-26T11:52:20.113Z,100663.56
2024-02-26T11:54:53.853Z,100672.13
2024-02-26T11:57:24.354Z,100668.63
2024-02-26T11:59:52.551Z,100664.28
2024-02-26T12:02:45.064Z,100681.63
2024-02-26T12:05:25.133Z,100687.66
2024-02-26T12:07:58.271Z,100675.56
2024-02-26T12:10:40.223Z,100698.06
2024-02-26T12:13:18.622Z,100681.66
2024-02-26T12:16:08.222Z,100681.75
2024-02-26T12:18:36.926Z,100692.00
2024-02-26T12:21:07.957Z,100689.38
2024-02-26T12:23:35.995Z,100697.78
2024-02-26T12:26:06.750Z,100709.16
2024-02-26T12:28:36.436Z,100701.41
2024-02-26T12:31:04.147Z,100710.09
2024-02-26T12:33:33.096Z,100706.78
2024-02-26T12:36:01.330Z,100711.59
2024-02-26T12:38:30.621Z,100710.16
2024-02-26T12:40:58.372Z,100716.06
2024-02-26T12:43:26.138Z,100739.31
2024-02-26T12:45:53.917Z,100726.50
2024-02-26T12:48:21.706Z,100746.13
2024-02-26T12:50:49.780Z,100736.94
2024-02-26T12:53:17.684Z,100735.22
2024-02-26T12:55:45.872Z,100753.19
2024-02-26T12:58:14.503Z,100749.09
2024-02-26T13:00:42.372Z,100726.53
2024-02-26T13:03:11.528Z,100761.78
2024-02-26T13:05:39.799Z,100749.84
2024-02-26T13:08:09.478Z,100752.66
2024-02-26T13:10:38.176Z,100753.38
2024-02-26T13:13:06.417Z,100760.31
2024-02-26T13:15:34.226Z,100756.84
2024-02-26T13:18:11.868Z,100774.00
2024-02-26T13:20:41.277Z,100767.16
2024-02-26T13:23:10.240Z,100779.16
2024-02-26T13:25:42.625Z,100773.97
2024-02-26T13:28:20.574Z,100775.88
2024-02-26T13:30:58.791Z,100775.84
2024-02-26T13:33:28.034Z,100793.78
2024-02-26T13:35:57.746Z,100788.84
2024-02-26T13:38:25.676Z,100786.06
2024-02-26T13:40:53.576Z,100782.63
2024-02-26T13:43:21.477Z,100784.50
2024-02-26T13:45:49.747Z,100795.56
2024-02-26T13:48:17.806Z,100794.75
2024-02-26T13:50:46.738Z,100803.38
2024-02-26T13:53:15.723Z,100807.63
2024-02-26T13:55:45.176Z,100817.03
2024-02-26T13:58:16.509Z,100810.91
2024-02-26T14:00:44.697Z,100816.97
2024-02-26T14:03:12.677Z,100826.56
2024-02-26T14:05:40.651Z,100830.06
2024-02-26T14:08:09.078Z,100830.09
2024-02-26T14:10:37.372Z,100830.22
2024-02-26T14:13:05.171Z,100840.28
2024-02-26T14:15:35.089Z,100832.56
2024-02-26T14:18:05.424Z,100845.78
2024-02-26T14:20:33.128Z,100846.41
2024-02-26T14:23:01.740Z,100846.53
2024-02-26T14:25:31.419Z,100845.75
2024-02-26T14:28:00.105Z,100853.56
2024-02-26T14:30:28.628Z,100856.78
2024-02-26T14:32:56.761Z,100858.50
2024-02-26T14:35:24.606Z,100856.06
2024-02-26T14:37:53.126Z,100867.06
2024-02-26T14:40:20.821Z,100863.63
2024-02-26T14:42:49.824Z,100874.16
2024-02-26T14:45:17.814Z,100881.97
2024-02-26T14:47:45.620Z,100895.63
2024-02-26T14:50:13.547Z,100887.06
2024-02-26T14:52:41.293Z,100882.88
2024-02-26T14:55:09.012Z,100887.97
2024-02-26T14:57:36.680Z,100893.13
2024-02-26T15:00:06.632Z,100908.72
2024-02-26T15:02:34.272Z,100893.13
2024-02-26T15:05:01.867Z,100904.56
2024-02-26T15:07:29.531Z,100905.28
2024-02-26T15:10:00.724Z,100916.69
2024-02-26T15:12:28.963Z,100915.72
2024-02-26T15:14:57.845Z,100927.59
2024-02-26T15:17:25.665Z,100926.75
2024-02-26T15:19:53.308Z,100922.38
2024-02-26T15:22:20.953Z,100924.25
2024-02-26T15:24:48.677Z,100936.19
2024-02-26T15:27:16.342Z,100931.13
2024-02-26T15:29:43.879Z,100942.38
2024-02-26T15:32:12.803Z,100948.28
2024-02-26T15:34:40.522Z,100951.63
2024-02-26T15:37:08.388Z,100946.63
2024-02-26T15:39:37.565Z,100949.06
2024-02-26T15:42:05.375Z,100955.91
2024-02-26T15:44:32.906Z,100971.59
2024-02-26T15:47:00.917Z,100962.94
2024-02-26T15:49:28.521Z,100969.91
2024-02-26T15:51:56.138Z,100992.16
2024-02-26T15:54:23.707Z,100976.66
2024-02-26T15:56:51.393Z,100980.19
2024-02-26T15:59:20.645Z,100975.00
2024-02-26T16:01:48.830Z,100982.69
2024-02-26T16:04:16.551Z,100993.91
2024-02-26T16:06:50.964Z,100990.47
2024-02-26T16:09:18.538Z,100979.03
2024-02-26T16:11:46.269Z,100999.56
2024-02-26T16:14:40.601Z,101006.53
2024-02-26T16:17:35.942Z,101023.72
2024-02-26T16:20:06.288Z,101026.31
2024-02-26T16:22:34.058Z,101035.88
2024-02-26T16:25:01.639Z,101029.41
2024-02-26T16:27:29.309Z,101034.56
2024-02-26T16:29:57.429Z,101042.38
2024-02-26T16:32:25.145Z,101040.69
2024-02-26T16:34:53.082Z,101044.91
2024-02-26T16:37:20.737Z,101046.47
2024-02-26T16:39:48.306Z,101064.31
2024-02-26T16:42:16.057Z,101050.75
2024-02-26T16:44:43.820Z,101056.66
2024-02-26T16:47:11.743Z,101062.66
2024-02-26T16:49:39.509Z,101074.78
2024-02-26T16:52:07.457Z,101082.50
2024-02-26T16:54:35.072Z,101079.78
2024-02-26T16:57:03.219Z,101089.78
2024-02-26T16:59:31.159Z,101090.78
2024-02-26T17:02:00.247Z,101100.19
2024-02-26T17:04:28.414Z,101106.81
2024-02-26T17:06:56.516Z,101107.94
2024-02-26T17:09:24.687Z,101108.78
2024-02-26T17:11:54.504Z,101114.06
2024-02-26T17:14:23.087Z,101115.34
2024-02-26T17:16:54.209Z,101119.78
2024-02-26T17:19:21.928Z,101123.94
2024-02-26T17:21:49.542Z,101125.53
2024-02-26T17:24:17.166Z,101129.88
2024-02-26T17:26:44.690Z,101128.91
2024-02-26T17:29:12.557Z,101146.84
2024-02-26T17:31:43.312Z,101157.03
2024-02-26T17:34:12.294Z,101156.06
2024-02-26T17:36:40.977Z,101161.97
2024-02-26T17:39:08.640Z,101169.94
2024-02-26T17:41:36.221Z,101175.31
2024-02-26T17:44:03.908Z,101178.50
2024-02-26T17:46:31.486Z,101186.03
2024-02-26T17:48:59.255Z,101183.31
2024-02-26T17:51:27.000Z,101185.06
2024-02-26T17:53:55.103Z,101197.31
2024-02-26T17:56:22.736Z,101206.75
2024-02-26T17:58:50.630Z,101205.75
2024-02-26T18:01:18.357Z,101219.59
2024-02-26T18:03:46.135Z,101222.03
2024-02-26T18:06:13.929Z,101222.88
2024-02-26T18:08:41.586Z,101232.97
2024-02-26T18:11:11.380Z,101235.72
2024-02-26T18:13:43.808Z,101247.44
2024-02-26T18:16:11.443Z,101248.50
2024-02-26T18:18:39.909Z,101251.91
2024-02-26T18:21:07.961Z,101261.44
2024-02-26T18:23:36.076Z,101260.59
2024-02-26T18:26:04.168Z,101262.88
2024-02-26T18:28:32.345Z,101264.84
2024-02-26T18:31:00.709Z,101268.25
2024-02-26T18:33:30.363Z,101273.91
2024-02-26T18:35:58.838Z,101279.03
2024-02-26T18:38:27.725Z,101286.28
2024-02-26T18:40:55.859Z,101292.09
2024-02-26T18:43:23.941Z,101292.72
2024-02-26T18:45:52.546Z,101304.72
2024-02-26T18:48:22.188Z,101301.69
2024-02-26T18:50:50.349Z,101311.84
2024-02-26T18:53:19.610Z,101320.28
2024-02-26T18:55:48.091Z,101311.53
2024-02-26T18:58:16.156Z,101313.22
2024-02-26T19:00:44.326Z,101326.09
2024-02-26T19:03:12.380Z,101335.47
2024-02-26T19:05:40.364Z,101325.91
2024-02-26T19:08:09.674Z,101346.72
2024-02-26T19:10:38.592Z,101354.38
2024-02-26T19:13:09.688Z,101356.09
2024-02-26T19:15:39.675Z,101352.09
2024-02-26T19:18:08.035Z,101361.75
2024-02-26T19:20:36.005Z,101373.47
2024-02-26T19:23:04.384Z,101367.44
2024-02-26T19:25:31.999Z,101374.41
2024-02-26T19:27:59.643Z,101376.38
2024-02-26T19:30:27.334Z,101378.44
2024-02-26T19:32:55.041Z,101385.53
2024-02-26T19:35:22.625Z,101392.50
2024-02-26T19:37:50.256Z,101395.03
2024-02-26T19:40:17.910Z,101389.69
2024-02-26T19:42:45.476Z,101400.22
2024-02-26T19:45:13.377Z,101396.91
2024-02-26T19:47:41.426Z,101399.59
2024-02-26T19:50:10.194Z,101402.06
2024-02-26T19:52:37.845Z,101407.97
2024-02-26T19:55:05.986Z,101401.00
2024-02-26T19:57:34.912Z,101414.03
2024-02-26T20:00:03.527Z,101428.59
2024-02-26T20:02:31.158Z,101436.31
2024-02-26T20:04:58.648Z,101435.53
2024-02-26T20:07:26.191Z,101434.78
2024-02-26T20:09:53.698Z,101441.00
2024-02-26T20:12:21.343Z,101457.81
2024-02-26T20:14:48.899Z,101461.22
2024-02-26T20:17:17.195Z,101482.75
2024-02-26T20:19:45.044Z,101476.50
2024-02-26T20:22:14.646Z,101479.84
2024-02-26T20:24:42.395Z,101481.66
2024-02-26T20:27:12.083Z,101479.94
2024-02-26T20:29:40.127Z,101478.75
2024-02-26T20:32:08.233Z,101489.78
2024-02-26T20:34:35.992Z,101491.56
2024-02-26T20:37:03.863Z,101489.88
2024-02-26T20:39:31.548Z,101501.88
2024-02-26T20:41:59.221Z,101493.22
2024-02-26T20:44:26.791Z,101501.00
2024-02-26T20:46:57.025Z,101509.38
2024-02-26T20:49:24.781Z,101508.13
2024-02-26T20:51:52.428Z,101513.81
2024-02-26T20:54:20.577Z,101504.91
2024-02-26T20:56:50.770Z,101508.41
2024-02-26T20:59:18.689Z,101515.09
2024-02-26T21:01:46.427Z,101520.50
2024-02-26T21:04:13.194Z,101537.50
2024-02-26T21:06:40.913Z,101531.66
2024-02-26T21:09:09.409Z,101541.75
2024-02-26T21:11:37.473Z,101541.03
2024-02-26T21:14:06.124Z,101553.03
2024-02-26T21:16:33.733Z,101539.41
2024-02-26T21:19:03.290Z,101547.47
2024-02-26T21:21:31.749Z,101544.75
2024-02-26T21:24:02.147Z,101553.50
2024-02-26T21:26:31.294Z,101545.34
2024-02-26T21:28:58.854Z,101555.25
2024-02-26T21:31:26.470Z,101555.06
2024-02-26T21:33:54.230Z,101549.13
2024-02-26T21:36:22.359Z,101560.22
2024-02-26T21:38:51.353Z,101565.38
2024-02-26T21:41:20.597Z,101567.13
2024-02-26T21:43:51.815Z,101561.38
2024-02-26T21:46:20.539Z,101572.63
2024-02-26T21:48:48.653Z,101571.09
2024-02-26T21:51:16.524Z,101569.06
2024-02-26T21:53:46.508Z,101574.22
2024-02-26T21:56:15.671Z,101579.81
2024-02-26T21:58:43.273Z,101582.56
2024-02-26T22:01:10.879Z,101585.88
2024-02-26T22:03:38.620Z,101584.25
2024-02-26T22:06:07.283Z,101583.94
2024-02-26T22:08:34.950Z,101591.72
2024-02-26T22:11:03.647Z,101591.41
2024-02-26T22:13:31.387Z,101603.50
2024-02-26T22:15:59.150Z,101602.66
2024-02-26T22:18:26.894Z,101601.94
2024-02-26T22:20:54.633Z,101593.19
2024-02-26T22:23:22.259Z,101606.19
2024-02-26T22:25:50.210Z,101607.97
2024-02-26T22:28:17.833Z,101610.19
2024-02-26T22:30:45.533Z,101598.03
2024-02-26T22:33:13.253Z,101602.50
2024-02-26T22:35:40.996Z,101610.97
2024-02-26T22:38:08.620Z,101613.72
2024-02-26T22:40:36.167Z,101616.91
2024-02-26T22:43:03.790Z,101628.91
2024-02-26T22:45:31.336Z,101623.13
2024-02-26T22:47:59.234Z,101617.03
2024-02-26T22:50:26.925Z,101625.59
2024-02-26T22:52:54.926Z,101630.44
2024-02-26T22:55:24.777Z,101636.69
2024-02-26T22:57:52.892Z,101635.59
2024-02-26T23:00:32.436Z,101635.59
2024-02-26T23:03:01.469Z,101646.63
2024-02-26T23:05:30.047Z,101647.25
2024-02-26T23:07:58.554Z,101645.50
2024-02-26T23:10:26.812Z,101640.34
2024-02-26T23:12:54.626Z,101649.81
2024-02-26T23:15:22.411Z,101642.94
2024-02-26T23:17:50.296Z,101640.34
2024-02-26T23:20:18.225Z,101660.69
2024-02-26T23:22:47.557Z,101659.91
2024-02-26T23:25:16.822Z,101657.16
2024-02-26T23:27:46.177Z,101668.28
2024-02-26T23:30:14.945Z,101656.34
2024-02-26T23:32:43.243Z,101668.28
2024-02-26T23:35:11.563Z,101659.53
2024-02-26T23:37:39.353Z,101663.97
2024-02-26T23:40:08.158Z,101663.97
2024-02-26T23:42:38.124Z,101662.25
2024-02-26T23:45:08.664Z,101669.63
2024-02-26T23:47:36.607Z,101669.75
2024-02-26T23:50:05.269Z,101672.53
2024-02-26T23:52:32.965Z,101666.09
2024-02-26T23:55:00.629Z,101667.94
2024-02-26T23:57:28.180Z,101679.03
2024-02-26T23:59:55.893Z,101670.47
